Arnold, North Carolina
Current Conditions -  °F | °C
As of 8:15 PM on Tuesday 21 Oct 2014 (Local Time) from KEXX Reporting Station
Broken Clouds Broken Clouds  
Wind Chill: 60°   Ceiling: 8000
Heat Index: 60°   Visibility: 10mi
Dew Point: 38°   Wind: 5mph
Humidity: 44%   Direction: 290°WNW
Pressure: 29.94"   Gusts: NA
Location:  35.7974°N, 80.2541°W
Report Text: KEXX 220015Z AUTO 29004KT 10SM BKN080 16/03 A2994 RMK AO2 T01560034
Loading
Personal Weather Stations






























Interactive Weather Map New forecast layout! Learn more

10-Day Weather Forecast

Advertisements
Track Severe Weather on mobile